createdAt,value
2023-05-13T00:01:23.720Z,100693.00
2023-05-13T00:03:53.207Z,100693.19
2023-05-13T00:06:22.534Z,100697.88
2023-05-13T00:08:51.935Z,100693.78
2023-05-13T00:11:21.202Z,100681.09
2023-05-13T00:13:50.623Z,100686.38
2023-05-13T00:16:19.978Z,100688.84
2023-05-13T00:18:52.061Z,100690.88
2023-05-13T00:21:21.660Z,100693.53
2023-05-13T00:23:50.949Z,100695.78
2023-05-13T00:26:20.452Z,100694.16
2023-05-13T00:28:49.751Z,100683.94
2023-05-13T00:31:19.091Z,100680.47
2023-05-13T00:33:48.456Z,100683.94
2023-05-13T00:36:20.325Z,100680.88
2023-05-13T00:38:52.655Z,100662.84
2023-05-13T00:41:21.994Z,100672.63
2023-05-13T00:43:51.387Z,100672.44
2023-05-13T00:46:20.869Z,100664.25
2023-05-13T00:48:50.220Z,100657.91
2023-05-13T00:51:22.157Z,100665.94
2023-05-13T00:53:51.508Z,100670.81
2023-05-13T00:56:21.850Z,100680.00
2023-05-13T00:58:51.280Z,100677.53
2023-05-13T01:01:22.510Z,100672.03
2023-05-13T01:03:53.899Z,100670.16
2023-05-13T01:06:26.874Z,100664.44
2023-05-13T01:08:59.608Z,100666.09
2023-05-13T01:11:30.414Z,100667.75
2023-05-13T01:14:01.368Z,100673.03
2023-05-13T01:16:31.958Z,100669.56
2023-05-13T01:19:01.961Z,100669.38
2023-05-13T01:21:34.041Z,100668.16
2023-05-13T01:24:03.391Z,100665.16
2023-05-13T01:26:32.777Z,100665.56
2023-05-13T01:29:02.135Z,100674.41
2023-05-13T01:31:31.478Z,100670.25
2023-05-13T01:34:00.845Z,100674.13
2023-05-13T01:36:30.221Z,100671.22
2023-05-13T01:39:02.116Z,100669.97
2023-05-13T01:41:31.404Z,100674.88
2023-05-13T01:44:00.699Z,100670.31
2023-05-13T01:46:30.513Z,100672.16
2023-05-13T01:48:59.864Z,100665.22
2023-05-13T01:51:29.161Z,100662.75
2023-05-13T01:53:58.507Z,100660.50
2023-05-13T01:56:30.528Z,100663.97
2023-05-13T01:58:59.867Z,100662.56
2023-05-13T02:01:29.217Z,100664.47
2023-05-13T02:04:00.377Z,100663.56
2023-05-13T02:06:30.350Z,100668.50
2023-05-13T02:08:59.637Z,100670.53
2023-05-13T02:11:31.495Z,100671.13
2023-05-13T02:14:00.847Z,100657.03
2023-05-13T02:16:30.201Z,100666.00
2023-05-13T02:18:59.558Z,100659.44
2023-05-13T02:21:28.884Z,100661.44
2023-05-13T02:23:58.233Z,100653.44
2023-05-13T02:26:27.811Z,100662.84
2023-05-13T02:28:59.861Z,100662.25
2023-05-13T02:31:29.211Z,100664.94
2023-05-13T02:33:58.552Z,100656.97
2023-05-13T02:36:27.932Z,100653.91
2023-05-13T02:38:57.677Z,100647.34
2023-05-13T02:41:27.059Z,100648.97
2023-05-13T02:43:58.992Z,100653.66
2023-05-13T02:46:28.370Z,100649.75
2023-05-13T02:48:57.767Z,100653.44
2023-05-13T02:51:27.095Z,100644.88
2023-05-13T02:53:56.453Z,100650.97
2023-05-13T02:56:26.268Z,100651.81
2023-05-13T02:58:55.615Z,100648.97
2023-05-13T03:01:27.843Z,100649.00
2023-05-13T03:03:57.197Z,100652.22
2023-05-13T03:06:26.726Z,100657.75
2023-05-13T03:08:56.066Z,100658.59
2023-05-13T03:11:26.888Z,100653.22
2023-05-13T03:13:56.206Z,100656.09
2023-05-13T03:16:28.136Z,100646.88
2023-05-13T03:18:57.509Z,100656.56
2023-05-13T03:21:26.855Z,100652.69
2023-05-13T03:23:56.126Z,100652.94
2023-05-13T03:26:26.182Z,100651.06
2023-05-13T03:28:55.521Z,100657.16
2023-05-13T03:31:25.134Z,100654.97
2023-05-13T03:33:57.020Z,100664.81
2023-05-13T03:36:26.628Z,100662.28
2023-05-13T03:38:55.958Z,100657.81
2023-05-13T03:41:25.255Z,100662.47
2023-05-13T03:43:54.628Z,100655.53
2023-05-13T03:46:24.226Z,100656.94
2023-05-13T03:48:53.576Z,100660.84
2023-05-13T03:51:25.437Z,100662.56
2023-05-13T03:53:54.749Z,100666.28
2023-05-13T03:56:24.329Z,100663.19
2023-05-13T03:58:53.670Z,100664.59
2023-05-13T04:01:23.027Z,100670.47
2023-05-13T04:03:52.599Z,100666.75
2023-05-13T04:06:21.930Z,100674.31
2023-05-13T04:08:53.801Z,100678.19
2023-05-13T04:11:23.122Z,100678.19
2023-05-13T04:13:52.429Z,100674.97
2023-05-13T04:16:22.735Z,100679.06
2023-05-13T04:18:52.120Z,100676.78
2023-05-13T04:21:21.500Z,100684.56
2023-05-13T04:27:04.215Z,100691.72
2023-05-13T04:29:33.513Z,100690.25
2023-05-13T04:32:02.928Z,100690.66
2023-05-13T04:34:32.366Z,100699.38
2023-05-13T04:37:01.734Z,100692.56
2023-05-13T04:39:31.017Z,100695.19
2023-05-13T04:42:00.536Z,100700.50
2023-05-13T04:44:32.483Z,100701.97
2023-05-13T04:47:01.801Z,100703.28
2023-05-13T04:49:31.197Z,100703.56
2023-05-13T04:52:00.976Z,100700.03
2023-05-13T04:54:30.341Z,100698.16
2023-05-13T04:56:59.646Z,100709.38
2023-05-13T04:59:28.956Z,100705.63
2023-05-13T05:02:00.894Z,100707.53
2023-05-13T05:04:30.236Z,100709.19
2023-05-13T05:06:59.550Z,100706.28
2023-05-13T05:09:30.206Z,100712.78
2023-05-13T05:11:59.488Z,100712.44
2023-05-13T05:14:28.920Z,100718.13
2023-05-13T05:17:00.904Z,100714.97
2023-05-13T05:19:30.276Z,100726.44
2023-05-13T05:21:59.587Z,100724.84
2023-05-13T05:24:28.873Z,100729.31
2023-05-13T05:26:58.172Z,100728.59
2023-05-13T05:29:27.653Z,100729.53
2023-05-13T05:31:57.057Z,100730.09
2023-05-13T05:34:29.070Z,100725.22
2023-05-13T05:36:58.345Z,100730.72
2023-05-13T05:39:27.651Z,100732.13
2023-05-13T05:41:57.219Z,100731.56
2023-05-13T05:44:26.579Z,100725.47
2023-05-13T05:46:55.918Z,100728.31
2023-05-13T05:49:25.211Z,100735.28
2023-05-13T05:51:57.135Z,100731.47
2023-05-13T05:54:26.441Z,100736.41
2023-05-13T05:56:55.801Z,100743.59
2023-05-13T05:59:25.123Z,100745.94
2023-05-13T06:01:54.416Z,100749.69
2023-05-13T06:04:24.970Z,100747.44
2023-05-13T06:06:56.974Z,100750.19
2023-05-13T06:09:26.310Z,100749.31
2023-05-13T06:11:55.637Z,100747.22
2023-05-13T06:14:24.916Z,100747.56
2023-05-13T06:16:55.705Z,100750.56
2023-05-13T06:19:25.283Z,100762.94
2023-05-13T06:21:57.171Z,100753.97
2023-05-13T06:24:26.455Z,100763.25
2023-05-13T06:26:55.771Z,100759.91
2023-05-13T06:29:25.081Z,100757.00
2023-05-13T06:31:54.434Z,100758.16
2023-05-13T06:34:23.752Z,100759.78
2023-05-13T06:36:53.127Z,100751.91
2023-05-13T06:39:25.410Z,100751.63
2023-05-13T06:41:54.895Z,100748.25
2023-05-13T06:44:24.215Z,100748.25
2023-05-13T06:46:53.576Z,100753.94
2023-05-13T06:49:24.712Z,100762.53
2023-05-13T06:51:54.007Z,100757.63
2023-05-13T06:54:27.765Z,100757.50
2023-05-13T06:56:57.168Z,100761.44
2023-05-13T06:59:26.711Z,100754.91
2023-05-13T07:01:56.390Z,100765.38
2023-05-13T07:04:25.985Z,100760.97
2023-05-13T07:06:55.560Z,100769.25
2023-05-13T07:09:27.940Z,100768.22
2023-05-13T07:11:57.544Z,100763.03
2023-05-13T07:14:27.113Z,100762.56
2023-05-13T07:16:58.850Z,100753.66
2023-05-13T07:19:28.441Z,100759.88
2023-05-13T07:21:58.021Z,100761.94
2023-05-13T07:24:30.113Z,100757.44
2023-05-13T07:26:59.782Z,100762.03
2023-05-13T07:29:29.323Z,100752.84
2023-05-13T07:31:58.896Z,100758.78
2023-05-13T07:34:28.444Z,100764.44
2023-05-13T07:36:58.257Z,100762.19
2023-05-13T07:39:30.349Z,100756.63
2023-05-13T07:41:59.942Z,100758.31
2023-05-13T07:44:30.086Z,100757.72
2023-05-13T07:46:59.676Z,100758.84
2023-05-13T07:49:29.407Z,100754.22
2023-05-13T07:51:59.001Z,100753.72
2023-05-13T07:54:31.255Z,100754.06
2023-05-13T07:57:00.824Z,100764.41
2023-05-13T07:59:30.417Z,100761.91
2023-05-13T08:02:00.143Z,100763.34
2023-05-13T08:04:29.750Z,100761.75
2023-05-13T08:06:59.348Z,100758.97
2023-05-13T08:09:31.486Z,100763.03
2023-05-13T08:12:01.179Z,100758.47
2023-05-13T08:14:30.772Z,100753.69
2023-05-13T08:17:00.412Z,100751.75
2023-05-13T08:19:29.979Z,100746.09
2023-05-13T08:21:59.546Z,100749.22
2023-05-13T08:24:31.671Z,100751.66
2023-05-13T08:27:01.286Z,100754.91
2023-05-13T08:29:30.851Z,100750.91
2023-05-13T08:32:00.416Z,100748.56
2023-05-13T08:34:30.062Z,100750.91
2023-05-13T08:37:03.151Z,100743.75
2023-05-13T08:39:35.348Z,100752.63
2023-05-13T08:42:06.226Z,100747.88
2023-05-13T08:44:35.536Z,100738.44
2023-05-13T08:47:09.400Z,100740.81
2023-05-13T08:49:38.974Z,100742.16
2023-05-13T08:52:09.088Z,100742.38
2023-05-13T08:54:41.682Z,100741.69
2023-05-13T08:57:11.190Z,100744.34
2023-05-13T08:59:40.907Z,100750.25
2023-05-13T09:02:10.392Z,100746.72
2023-05-13T09:04:41.446Z,100748.16
2023-05-13T09:07:11.634Z,100748.38
2023-05-13T09:09:44.552Z,100753.03
2023-05-13T09:12:14.115Z,100749.78
2023-05-13T09:14:43.786Z,100744.00
2023-05-13T09:17:13.360Z,100749.81
2023-05-13T09:19:43.045Z,100750.22
2023-05-13T09:22:20.111Z,100751.66
2023-05-13T09:24:58.872Z,100753.53
2023-05-13T09:27:38.577Z,100746.59
2023-05-13T09:30:09.940Z,100751.66
2023-05-13T09:32:39.509Z,100753.03
2023-05-13T09:35:18.306Z,100748.94
2023-05-13T09:37:48.233Z,100742.13
2023-05-13T09:40:20.846Z,100744.31
2023-05-13T09:42:50.613Z,100727.72
2023-05-13T09:45:20.827Z,100736.25
2023-05-13T09:47:53.851Z,100743.41
2023-05-13T09:50:24.024Z,100744.47
2023-05-13T09:52:53.877Z,100745.50
2023-05-13T09:55:26.223Z,100741.00
2023-05-13T09:57:56.413Z,100741.84
2023-05-13T10:00:32.582Z,100743.47
2023-05-13T10:03:02.492Z,100742.56
2023-05-13T10:05:32.278Z,100745.09
2023-05-13T10:08:02.016Z,100745.69
2023-05-13T10:10:35.181Z,100745.28
2023-05-13T10:13:07.370Z,100736.09
2023-05-13T10:15:37.398Z,100724.78
2023-05-13T10:18:07.774Z,100734.72
2023-05-13T10:20:37.385Z,100718.28
2023-05-13T10:23:07.055Z,100718.41
2023-05-13T10:25:39.316Z,100726.75
2023-05-13T10:28:09.000Z,100722.94
2023-05-13T10:30:38.589Z,100723.31
2023-05-13T10:33:08.174Z,100726.22
2023-05-13T10:35:42.643Z,100722.75
2023-05-13T10:38:12.885Z,100718.81
2023-05-13T10:41:04.783Z,100711.09
2023-05-13T10:43:34.936Z,100715.03
2023-05-13T10:46:05.145Z,100711.00
2023-05-13T10:48:41.638Z,100702.66
2023-05-13T10:51:11.803Z,100703.03
2023-05-13T10:53:47.405Z,100701.00
2023-05-13T10:56:20.030Z,100702.09
2023-05-13T10:59:00.284Z,100701.22
2023-05-13T11:01:31.211Z,100695.13
2023-05-13T11:04:01.983Z,100692.09
2023-05-13T11:06:33.129Z,100684.03
2023-05-13T11:09:02.638Z,100685.56
2023-05-13T11:11:37.808Z,100683.81
2023-05-13T11:14:20.880Z,100673.94
2023-05-13T11:16:51.994Z,100681.28
2023-05-13T11:19:22.726Z,100679.66
2023-05-13T11:21:54.501Z,100673.53
2023-05-13T11:24:24.453Z,100674.31
2023-05-13T11:26:57.972Z,100656.78
2023-05-13T11:29:31.919Z,100663.28
2023-05-13T11:32:01.785Z,100661.09
2023-05-13T11:34:31.729Z,100655.16
2023-05-13T11:37:10.462Z,100656.50
2023-05-13T11:39:41.964Z,100645.22
2023-05-13T11:42:14.209Z,100641.44
2023-05-13T11:44:48.239Z,100629.31
2023-05-13T11:47:17.800Z,100643.25
2023-05-13T11:49:47.923Z,100636.53
2023-05-13T11:52:18.544Z,100625.66
2023-05-13T11:54:49.343Z,100645.06
2023-05-13T11:57:24.549Z,100643.38
2023-05-13T11:59:55.401Z,100642.91
2023-05-13T12:02:25.221Z,100635.59
2023-05-13T12:04:55.483Z,100640.59
2023-05-13T12:07:26.002Z,100644.13
2023-05-13T12:09:56.001Z,100634.59
2023-05-13T12:12:28.394Z,100618.56
2023-05-13T12:14:58.802Z,100629.63
2023-05-13T12:17:28.536Z,100630.69
2023-05-13T12:20:08.503Z,100629.91
2023-05-13T12:22:38.491Z,100628.34
2023-05-13T12:25:38.262Z,100621.66
2023-05-13T12:28:17.278Z,100633.84
2023-05-13T12:30:51.748Z,100641.69
2023-05-13T12:33:22.255Z,100631.44
2023-05-13T12:35:52.721Z,100644.63
2023-05-13T12:38:24.066Z,100634.56
2023-05-13T12:40:54.917Z,100642.34
2023-05-13T12:43:27.088Z,100640.41
2023-05-13T12:45:57.625Z,100633.91
2023-05-13T12:48:27.906Z,100649.72
2023-05-13T12:50:59.541Z,100648.88
2023-05-13T12:53:30.253Z,100643.94
2023-05-13T12:55:59.951Z,100647.88
2023-05-13T12:58:32.076Z,100638.44
2023-05-13T13:01:01.647Z,100638.28
2023-05-13T13:03:31.479Z,100638.78
2023-05-13T13:06:01.105Z,100646.44
2023-05-13T13:08:30.898Z,100642.44
2023-05-13T13:11:01.816Z,100638.44
2023-05-13T13:13:33.728Z,100641.06
2023-05-13T13:16:03.349Z,100642.44
2023-05-13T13:18:33.051Z,100637.56
2023-05-13T13:21:02.679Z,100637.00
2023-05-13T13:23:32.252Z,100638.59
2023-05-13T13:26:01.819Z,100636.53
2023-05-13T13:28:34.393Z,100638.41
2023-05-13T13:31:03.976Z,100633.88
2023-05-13T13:33:33.541Z,100632.72
2023-05-13T13:36:03.057Z,100629.41
2023-05-13T13:38:32.642Z,100622.19
2023-05-13T13:41:02.308Z,100620.13
2023-05-13T13:43:34.451Z,100619.00
2023-05-13T13:46:04.055Z,100624.41
2023-05-13T13:48:33.786Z,100617.75
2023-05-13T13:51:03.321Z,100612.69
2023-05-13T13:53:32.855Z,100629.41
2023-05-13T13:56:02.427Z,100637.22
2023-05-13T13:58:34.560Z,100645.06
2023-05-13T14:01:04.164Z,100649.94
2023-05-13T14:03:33.823Z,100645.19
2023-05-13T14:06:03.392Z,100646.25
2023-05-13T14:08:32.887Z,100659.56
2023-05-13T14:11:02.622Z,100661.06
2023-05-13T14:13:34.742Z,100652.25
2023-05-13T14:16:04.441Z,100637.94
2023-05-13T14:18:34.092Z,100640.06
2023-05-13T14:21:03.694Z,100645.38
2023-05-13T14:23:33.264Z,100649.88
2023-05-13T14:26:02.834Z,100635.69
2023-05-13T14:28:35.026Z,100635.13
2023-05-13T14:31:04.593Z,100622.28
2023-05-13T14:33:34.183Z,100628.72
2023-05-13T14:36:03.757Z,100616.66
2023-05-13T14:38:33.314Z,100625.84
2023-05-13T14:41:02.861Z,100632.38
2023-05-13T14:43:34.978Z,100628.69
2023-05-13T14:46:04.893Z,100633.91
2023-05-13T14:48:34.480Z,100639.91
2023-05-13T14:51:04.025Z,100632.47
2023-05-13T14:53:33.577Z,100644.09
2023-05-13T14:56:03.106Z,100630.59
2023-05-13T14:58:35.257Z,100628.91
2023-05-13T15:01:04.861Z,100621.94
2023-05-13T15:03:34.553Z,100627.00
2023-05-13T15:06:04.530Z,100638.00
2023-05-13T15:08:34.163Z,100627.19
2023-05-13T15:11:03.715Z,100620.50
2023-05-13T15:13:37.014Z,100620.78
2023-05-13T15:16:07.171Z,100626.47
2023-05-13T15:18:36.739Z,100615.44
2023-05-13T15:21:06.546Z,100617.78
2023-05-13T15:23:36.449Z,100612.88
2023-05-13T15:26:06.145Z,100614.34
2023-05-13T15:28:38.292Z,100612.72
2023-05-13T15:31:08.169Z,100614.88
2023-05-13T15:33:37.803Z,100614.91
2023-05-13T15:36:10.018Z,100615.56
2023-05-13T15:38:39.588Z,100610.16
2023-05-13T15:41:09.408Z,100612.78
2023-05-13T15:43:41.509Z,100620.34
2023-05-13T15:46:11.124Z,100607.41
2023-05-13T15:48:40.952Z,100606.59
2023-05-13T15:51:10.485Z,100608.00
2023-05-13T15:53:40.021Z,100616.34
2023-05-13T15:56:09.973Z,100612.53
2023-05-13T15:58:42.131Z,100622.63
2023-05-13T16:01:11.691Z,100623.25
2023-05-13T16:03:41.278Z,100618.38
2023-05-13T16:06:10.854Z,100618.81
2023-05-13T16:08:40.505Z,100626.59
2023-05-13T16:11:11.955Z,100617.44
2023-05-13T16:13:44.762Z,100612.00
2023-05-13T16:16:14.391Z,100608.50
2023-05-13T16:18:44.043Z,100615.75
2023-05-13T16:21:13.646Z,100601.81
2023-05-13T16:23:43.260Z,100607.16
2023-05-13T16:26:12.795Z,100604.47
2023-05-13T16:28:45.077Z,100605.28
2023-05-13T16:31:14.648Z,100599.41
2023-05-13T16:33:44.206Z,100597.22
2023-05-13T16:36:14.060Z,100602.47
2023-05-13T16:38:44.029Z,100604.75
2023-05-13T16:41:13.713Z,100605.03
2023-05-13T16:43:46.083Z,100599.59
2023-05-13T16:46:17.528Z,100606.03
2023-05-13T16:48:47.480Z,100609.59
2023-05-13T16:51:17.056Z,100604.06
2023-05-13T16:53:46.619Z,100596.03
2023-05-13T16:56:16.784Z,100597.91
2023-05-13T16:58:48.892Z,100600.69
2023-05-13T17:01:18.499Z,100603.63
2023-05-13T17:03:48.151Z,100598.91
2023-05-13T17:06:17.734Z,100592.78
2023-05-13T17:08:47.254Z,100595.84
2023-05-13T17:11:18.714Z,100591.63
2023-05-13T17:13:51.370Z,100589.91
2023-05-13T17:16:21.004Z,100586.53
2023-05-13T17:18:50.624Z,100590.03
2023-05-13T17:21:20.226Z,100586.38
2023-05-13T17:23:49.806Z,100590.47
2023-05-13T17:26:19.349Z,100586.88
2023-05-13T17:28:51.520Z,100585.22
2023-05-13T17:31:21.088Z,100583.16
2023-05-13T17:33:50.676Z,100581.56
2023-05-13T17:36:20.287Z,100581.69
2023-05-13T17:38:50.765Z,100585.31
2023-05-13T17:41:20.356Z,100584.13
2023-05-13T17:43:52.486Z,100579.31
2023-05-13T17:46:22.042Z,100591.47
2023-05-13T17:48:51.758Z,100591.03
2023-05-13T17:51:21.382Z,100588.94
2023-05-13T17:53:50.931Z,100586.66
2023-05-13T17:56:21.504Z,100587.25
2023-05-13T17:58:53.610Z,100586.63
2023-05-13T18:01:23.292Z,100589.47
2023-05-13T18:03:52.830Z,100588.72
2023-05-13T18:06:22.384Z,100587.75
2023-05-13T18:08:51.945Z,100587.25
2023-05-13T18:11:22.181Z,100587.53
2023-05-13T18:13:54.359Z,100583.28
2023-05-13T18:16:23.947Z,100584.44
2023-05-13T18:18:53.589Z,100598.97
2023-05-13T18:21:24.356Z,100597.66
2023-05-13T18:23:53.894Z,100596.81
2023-05-13T18:26:23.713Z,100608.88
2023-05-13T18:28:55.983Z,100606.25
2023-05-13T18:31:25.646Z,100618.53
2023-05-13T18:33:55.209Z,100629.03
2023-05-13T18:36:24.736Z,100623.91
2023-05-13T18:38:54.439Z,100623.13
2023-05-13T18:41:24.063Z,100624.22
2023-05-13T18:43:56.218Z,100631.81
2023-05-13T18:46:26.119Z,100630.28
2023-05-13T18:48:55.678Z,100628.84
2023-05-13T18:51:25.260Z,100636.34
2023-05-13T18:53:54.989Z,100638.88
2023-05-13T18:56:24.604Z,100636.53
2023-05-13T18:58:57.247Z,100640.72
2023-05-13T19:01:26.846Z,100634.97
2023-05-13T19:03:56.842Z,100635.25
2023-05-13T19:06:26.508Z,100644.16
2023-05-13T19:08:56.146Z,100644.25
2023-05-13T19:11:26.303Z,100643.66
2023-05-13T19:13:58.474Z,100645.94
2023-05-13T19:16:28.559Z,100650.22
2023-05-13T19:18:58.191Z,100641.22
2023-05-13T19:21:27.778Z,100650.53
2023-05-13T19:23:58.847Z,100649.28
2023-05-13T19:26:28.572Z,100641.63
2023-05-13T19:29:00.865Z,100644.81
2023-05-13T19:31:31.772Z,100653.69
2023-05-13T19:34:01.500Z,100649.72
2023-05-13T19:36:31.256Z,100645.75
2023-05-13T19:39:00.930Z,100645.44
2023-05-13T19:41:30.524Z,100651.41
2023-05-13T19:44:02.655Z,100662.81
2023-05-13T19:46:32.385Z,100666.22
2023-05-13T19:49:01.993Z,100669.88
2023-05-13T19:51:31.803Z,100668.38
2023-05-13T19:54:01.987Z,100670.16
2023-05-13T19:56:31.691Z,100668.44
2023-05-13T19:59:03.825Z,100678.31
2023-05-13T20:01:34.055Z,100679.22
2023-05-13T20:04:03.712Z,100670.63
2023-05-13T20:06:33.476Z,100679.91
2023-05-13T20:09:03.590Z,100681.19
2023-05-13T20:11:33.135Z,100673.38
2023-05-13T20:14:05.452Z,100677.94
2023-05-13T20:16:34.995Z,100681.75
2023-05-13T20:19:04.633Z,100684.91
2023-05-13T20:21:34.606Z,100678.38
2023-05-13T20:24:04.276Z,100680.16
2023-05-13T20:26:35.137Z,100690.25
2023-05-13T20:29:08.313Z,100694.22
2023-05-13T20:31:42.554Z,100687.47
2023-05-13T20:34:12.138Z,100690.97
2023-05-13T20:36:41.746Z,100688.41
2023-05-13T20:39:11.338Z,100685.75
2023-05-13T20:41:41.104Z,100690.75
2023-05-13T20:44:15.958Z,100680.16
2023-05-13T20:46:45.597Z,100676.69
2023-05-13T20:49:15.146Z,100671.81
2023-05-13T20:51:45.018Z,100673.31
2023-05-13T20:54:14.887Z,100681.81
2023-05-13T20:56:44.518Z,100677.97
2023-05-13T20:59:16.620Z,100674.13
2023-05-13T21:01:47.621Z,100673.06
2023-05-13T21:04:17.399Z,100668.38
2023-05-13T21:06:47.030Z,100667.47
2023-05-13T21:09:16.644Z,100659.47
2023-05-13T21:11:46.308Z,100663.72
2023-05-13T21:14:18.459Z,100659.22
2023-05-13T21:16:48.009Z,100660.72
2023-05-13T21:19:24.131Z,100662.88
2023-05-13T21:21:53.756Z,100667.25
2023-05-13T21:24:23.431Z,100666.84
2023-05-13T21:26:53.949Z,100663.81
2023-05-13T21:29:26.117Z,100668.81
2023-05-13T21:31:55.681Z,100658.88
2023-05-13T21:34:25.327Z,100665.00
2023-05-13T21:36:54.942Z,100668.66
2023-05-13T21:39:24.512Z,100669.94
2023-05-13T21:41:54.213Z,100660.09
2023-05-13T21:44:26.903Z,100658.47
2023-05-13T21:46:56.418Z,100669.59
2023-05-13T21:49:26.380Z,100659.53
2023-05-13T21:51:55.964Z,100662.19
2023-05-13T21:54:25.519Z,100659.13
2023-05-13T21:56:55.079Z,100655.09
2023-05-13T21:59:27.309Z,100651.81
2023-05-13T22:01:56.911Z,100657.00
2023-05-13T22:04:26.912Z,100653.75
2023-05-13T22:06:56.726Z,100650.94
2023-05-13T22:09:26.261Z,100652.34
2023-05-13T22:11:55.866Z,100655.09
2023-05-13T22:14:28.071Z,100649.91
2023-05-13T22:17:08.429Z,100654.03
2023-05-13T22:19:39.652Z,100651.34
2023-05-13T22:22:09.343Z,100645.19
2023-05-13T22:24:38.930Z,100646.66
2023-05-13T22:27:08.941Z,100647.94
2023-05-13T22:29:41.080Z,100654.09
2023-05-13T22:32:11.226Z,100641.72
2023-05-13T22:34:40.888Z,100652.97
2023-05-13T22:37:10.428Z,100647.56
2023-05-13T22:39:40.009Z,100644.69
2023-05-13T22:42:10.269Z,100647.78
2023-05-13T22:44:42.417Z,100659.50
2023-05-13T22:47:11.997Z,100651.56
2023-05-13T22:49:41.655Z,100657.34
2023-05-13T22:52:11.286Z,100657.28
2023-05-13T22:54:41.673Z,100653.63
2023-05-13T22:57:11.327Z,100656.41
2023-05-13T22:59:43.481Z,100648.41
2023-05-13T23:02:13.070Z,100654.16
2023-05-13T23:04:42.711Z,100650.31
2023-05-13T23:07:12.281Z,100647.28
2023-05-13T23:09:41.990Z,100646.00
2023-05-13T23:12:11.669Z,100645.84
2023-05-13T23:14:43.854Z,100639.94
2023-05-13T23:17:13.482Z,100644.09
2023-05-13T23:19:43.058Z,100637.13
2023-05-13T23:22:12.731Z,100633.06
2023-05-13T23:24:42.288Z,100633.28
2023-05-13T23:27:11.935Z,100640.00
2023-05-13T23:29:44.166Z,100636.41
2023-05-13T23:32:13.943Z,100633.38
2023-05-13T23:34:43.573Z,100632.19
2023-05-13T23:37:15.728Z,100627.94
2023-05-13T23:39:45.290Z,100619.38
2023-05-13T23:42:14.899Z,100634.75
2023-05-13T23:44:47.068Z,100629.03
2023-05-13T23:47:16.870Z,100622.25
2023-05-13T23:49:46.537Z,100624.03
2023-05-13T23:52:16.111Z,100624.25
2023-05-13T23:54:45.706Z,100613.81
2023-05-13T23:57:15.355Z,100610.41
2023-05-13T23:59:47.501Z,100605.06
